Estherville, IA

8:54 AM CST on December 20, 2014 (GMT -0600)
Estherville Municipal | Change Station
CLOSE
Current Station
Airport
Location: Estherville,
Elevation: 1316 ft
Nearby Weather Stations
Active Advisory: Special Statement

Elev 1316 ft 43.40 °N, 94.75 °W | Updated 1 hour ago

Overcast
Overcast
28 °F
Feels Like 21 °F
N
7
Wind Variable Wind from South

Today
High -- | Low -- °F
--% Chance of Precip.
Yesterday
High -- | Low -- °F
Precip. -- in
7:48 AM 4:45 PM
Waning Crescent, 3% visible
Pressure 30.16 in
Visibility 8.0 miles
Clouds Scattered Clouds 500 ft
Overcast 1300 ft
Windchill 21 °F
Dew Point 27 °F
Humidity 96%
Rainfall 0.00 in
Snow Depth Not available.
UV 0 out of 12
Pollen .10 out of 12
Air Quality Not available.
Flu Activity Not available.
METAR KEST 201352Z AUTO 17006KT 8SM SCT005 OVC013 M02/M03 A3011 RMK AO2 SLP211 T10221028

More Conditions Fewer Conditions

Pressure 30.16 in
Visibility 8.0 miles
Clouds Scattered Clouds 500 ft
Overcast 1300 ft
Windchill 21 °F
Dew Point 27 °F
Humidity 96%
Rainfall 0.00 in
Snow Depth Not available.
UV 0 out of 12
Pollen .10 out of 12
Air Quality Not available.
Flu Activity Not available.
METAR KEST 201352Z AUTO 17006KT 8SM SCT005 OVC013 M02/M03 A3011 RMK AO2 SLP211 T10221028

More Conditions Fewer Conditions

10-Day Weather Forecast

Almanac

Astronomy

Dec. 20, 2014 Rise Set
Actual Time
Civil Twilight
Nautical Twilight
Astronomical Twilight
Moon
Length of Visible Light
Length of Day
Tomorrow will be .
, % of the Moon is Illuminated

Today's Extremes

State Highs State Lows

Community

WunderPhotos

Upload Photos

1,779,174 photos uploaded!

WunderBlogs® & News

Nearby

Air Quality

  Air Quality AQ Index Pollutant
Not available.

Snow Depth

Station Depth Elevation

Earthquake Activity

City Distance Mag. Time & Date
Minimum magnitude displayed is 2.5.

Coastal Water Temperatures

Place Temperature

Nearby Weather Stations